createdAt,value
2018-06-03T00:00:46.529Z,17.37
2018-06-03T00:03:14.639Z,17.22
2018-06-03T00:05:42.736Z,17.05
2018-06-03T00:08:10.824Z,17.01
2018-06-03T00:10:38.896Z,16.93
2018-06-03T00:13:06.980Z,16.88
2018-06-03T00:15:35.028Z,16.94
2018-06-03T00:18:03.112Z,16.84
2018-06-03T00:20:43.060Z,16.69
2018-06-03T00:23:11.121Z,16.61
2018-06-03T00:25:39.187Z,16.57
2018-06-03T00:28:07.266Z,16.53
2018-06-03T00:30:35.341Z,16.54
2018-06-03T00:33:03.428Z,16.53
2018-06-03T00:35:32.984Z,16.48
2018-06-03T00:38:01.098Z,16.54
2018-06-03T00:40:29.227Z,16.53
2018-06-03T00:42:57.228Z,16.41
2018-06-03T00:45:25.313Z,16.35
2018-06-03T00:47:53.392Z,16.36
2018-06-03T00:50:21.443Z,16.35
2018-06-03T00:52:49.550Z,16.27
2018-06-03T00:55:17.586Z,16.23
2018-06-03T00:57:45.704Z,16.24
2018-06-03T01:00:13.796Z,16.17
2018-06-03T01:02:41.844Z,16.13
2018-06-03T01:05:09.915Z,16.20
2018-06-03T01:07:37.979Z,16.18
2018-06-03T01:10:06.064Z,16.24
2018-06-03T01:12:34.208Z,16.13
2018-06-03T01:15:02.269Z,16.11
2018-06-03T01:17:30.341Z,16.12
2018-06-03T01:19:58.458Z,16.17
2018-06-03T01:22:33.039Z,16.15
2018-06-03T01:25:01.107Z,16.10
2018-06-03T01:27:29.144Z,16.15
2018-06-03T01:29:57.208Z,16.13
2018-06-03T01:32:25.313Z,16.08
2018-06-03T01:34:53.380Z,16.00
2018-06-03T01:39:55.947Z,15.89
2018-06-03T01:42:24.004Z,15.92
2018-06-03T01:44:52.088Z,15.84
2018-06-03T01:47:20.142Z,15.83
2018-06-03T01:49:48.200Z,15.77
2018-06-03T01:52:16.263Z,15.73
2018-06-03T01:54:44.327Z,15.65
2018-06-03T01:57:12.379Z,15.74
2018-06-03T01:59:40.492Z,15.70
2018-06-03T02:02:08.640Z,15.61
2018-06-03T02:04:36.721Z,15.53
2018-06-03T02:07:04.792Z,15.55
2018-06-03T02:09:32.857Z,15.52
2018-06-03T02:12:00.925Z,15.48
2018-06-03T02:14:28.976Z,15.49
2018-06-03T02:16:57.064Z,15.62
2018-06-03T02:19:25.127Z,15.64
2018-06-03T02:21:53.187Z,15.63
2018-06-03T02:24:21.273Z,15.53
2018-06-03T02:26:49.330Z,15.46
2018-06-03T02:29:17.409Z,15.39
2018-06-03T02:31:45.460Z,15.35
2018-06-03T02:34:13.526Z,15.29
2018-06-03T02:36:41.624Z,15.28
2018-06-03T02:39:09.691Z,15.26
2018-06-03T02:41:37.765Z,15.33
2018-06-03T02:44:05.844Z,15.27
2018-06-03T02:46:33.923Z,15.23
2018-06-03T02:49:01.986Z,15.20
2018-06-03T02:51:30.062Z,15.19
2018-06-03T02:53:58.131Z,15.17
2018-06-03T02:56:26.192Z,15.14
2018-06-03T02:58:54.280Z,15.10
2018-06-03T03:01:22.417Z,15.08
2018-06-03T03:03:50.464Z,15.07
2018-06-03T03:06:18.540Z,15.05
2018-06-03T03:08:46.601Z,15.10
2018-06-03T03:11:14.676Z,15.10
2018-06-03T03:13:42.767Z,15.09
2018-06-03T03:16:10.837Z,15.09
2018-06-03T03:18:38.902Z,15.08
2018-06-03T03:21:07.000Z,15.13
2018-06-03T03:23:35.083Z,15.14
2018-06-03T03:26:03.167Z,15.16
2018-06-03T03:28:31.255Z,15.18
2018-06-03T03:30:59.337Z,15.18
2018-06-03T03:33:27.382Z,15.18
2018-06-03T03:35:55.462Z,15.26
2018-06-03T03:38:23.510Z,15.30
2018-06-03T03:40:51.589Z,15.30
2018-06-03T03:43:19.640Z,15.35
2018-06-03T03:45:47.721Z,15.36
2018-06-03T03:48:15.780Z,15.34
2018-06-03T03:50:43.847Z,15.31
2018-06-03T03:53:11.924Z,15.30
2018-06-03T03:55:39.991Z,15.31
2018-06-03T03:58:08.073Z,15.32
2018-06-03T04:00:36.132Z,15.40
2018-06-03T04:03:04.196Z,15.49
2018-06-03T04:05:32.267Z,15.50
2018-06-03T04:08:00.375Z,15.49
2018-06-03T04:10:28.432Z,15.48
2018-06-03T04:12:56.509Z,15.47
2018-06-03T04:15:24.557Z,15.48
2018-06-03T04:17:52.655Z,15.48
2018-06-03T04:20:20.748Z,15.52
2018-06-03T04:22:48.873Z,15.57
2018-06-03T04:25:17.159Z,15.58
2018-06-03T04:27:45.318Z,15.62
2018-06-03T04:30:13.413Z,15.60
2018-06-03T04:32:41.495Z,15.62
2018-06-03T04:35:09.560Z,15.68
2018-06-03T04:37:37.619Z,15.75
2018-06-03T04:40:05.703Z,15.87
2018-06-03T04:42:33.777Z,15.82
2018-06-03T04:45:01.840Z,15.86
2018-06-03T04:47:29.903Z,15.95
2018-06-03T04:49:57.941Z,16.01
2018-06-03T04:52:26.047Z,16.19
2018-06-03T04:54:54.101Z,16.28
2018-06-03T04:57:22.171Z,16.32
2018-06-03T04:59:50.215Z,16.41
2018-06-03T05:02:18.287Z,16.50
2018-06-03T05:04:46.354Z,16.79
2018-06-03T05:07:14.420Z,16.92
2018-06-03T05:09:42.491Z,16.89
2018-06-03T05:12:10.566Z,17.03
2018-06-03T05:14:38.603Z,17.12
2018-06-03T05:17:06.668Z,17.31
2018-06-03T05:19:34.709Z,17.48
2018-06-03T05:22:02.768Z,17.66
2018-06-03T05:24:30.890Z,17.83
2018-06-03T05:26:58.950Z,17.89
2018-06-03T05:29:27.031Z,17.98
2018-06-03T05:31:55.124Z,18.07
2018-06-03T05:34:23.180Z,18.23
2018-06-03T05:36:51.336Z,18.28
2018-06-03T05:39:19.396Z,18.47
2018-06-03T05:41:47.453Z,18.56
2018-06-03T05:44:15.563Z,18.76
2018-06-03T05:46:43.632Z,18.92
2018-06-03T05:49:11.773Z,18.99
2018-06-03T05:51:39.873Z,19.14
2018-06-03T05:54:07.963Z,19.20
2018-06-03T05:56:36.123Z,19.25
2018-06-03T05:59:04.240Z,19.48
2018-06-03T06:01:32.279Z,19.50
2018-06-03T06:04:00.343Z,19.57
2018-06-03T06:06:28.414Z,19.63
2018-06-03T06:08:56.522Z,19.77
2018-06-03T06:11:24.576Z,19.87
2018-06-03T06:13:52.669Z,19.91
2018-06-03T06:16:20.722Z,19.99
2018-06-03T06:18:48.783Z,20.13
2018-06-03T06:21:16.869Z,20.19
2018-06-03T06:23:44.982Z,20.31
2018-06-03T06:26:13.060Z,20.32
2018-06-03T06:28:41.157Z,20.26
2018-06-03T06:31:09.225Z,20.40
2018-06-03T06:33:37.334Z,20.51
2018-06-03T06:36:05.453Z,20.56
2018-06-03T06:38:33.699Z,20.48
2018-06-03T06:41:01.799Z,20.58
2018-06-03T06:43:29.867Z,20.70
2018-06-03T06:45:57.944Z,20.72
2018-06-03T06:48:26.020Z,20.73
2018-06-03T06:50:54.099Z,20.87
2018-06-03T06:53:22.164Z,20.78
2018-06-03T06:55:50.243Z,20.78
2018-06-03T06:58:18.324Z,20.96
2018-06-03T07:00:46.403Z,20.97
2018-06-03T07:03:14.473Z,21.17
2018-06-03T07:05:42.544Z,21.26
2018-06-03T07:08:10.616Z,21.25
2018-06-03T07:10:38.667Z,21.33
2018-06-03T07:13:06.794Z,21.40
2018-06-03T07:15:34.808Z,21.50
2018-06-03T07:18:02.881Z,21.53
2018-06-03T07:20:31.181Z,21.76
2018-06-03T07:22:59.263Z,21.93
2018-06-03T07:25:27.313Z,22.02
2018-06-03T07:27:55.385Z,21.94
2018-06-03T07:30:23.474Z,22.07
2018-06-03T07:32:51.576Z,22.11
2018-06-03T07:35:19.696Z,22.19
2018-06-03T07:37:47.779Z,22.16
2018-06-03T07:40:15.874Z,21.79
2018-06-03T07:42:43.936Z,21.93
2018-06-03T07:45:12.032Z,22.23
2018-06-03T07:47:40.112Z,22.30
2018-06-03T07:50:08.213Z,22.52
2018-06-03T07:52:36.321Z,22.75
2018-06-03T07:55:04.406Z,22.79
2018-06-03T07:57:32.474Z,22.83
2018-06-03T08:00:01.465Z,22.86
2018-06-03T08:02:29.539Z,22.89
2018-06-03T08:04:57.613Z,22.83
2018-06-03T08:07:25.687Z,22.93
2018-06-03T08:09:53.832Z,22.99
2018-06-03T08:12:21.973Z,23.11
2018-06-03T08:14:50.028Z,23.20
2018-06-03T08:17:18.078Z,23.24
2018-06-03T08:19:46.116Z,22.96
2018-06-03T08:22:14.192Z,23.01
2018-06-03T08:24:42.258Z,23.21
2018-06-03T08:27:10.328Z,23.35
2018-06-03T08:29:38.397Z,23.42
2018-06-03T08:32:06.498Z,23.60
2018-06-03T08:34:34.564Z,23.82
2018-06-03T08:37:02.621Z,23.90
2018-06-03T08:39:30.713Z,23.90
2018-06-03T08:41:58.797Z,23.87
2018-06-03T08:44:26.898Z,23.89
2018-06-03T08:46:54.955Z,23.99
2018-06-03T08:49:23.029Z,24.01
2018-06-03T08:51:51.094Z,23.89
2018-06-03T08:54:19.180Z,24.14
2018-06-03T08:56:47.271Z,24.05
2018-06-03T08:59:15.344Z,23.70
2018-06-03T09:01:43.413Z,23.93
2018-06-03T09:04:11.476Z,24.04
2018-06-03T09:06:39.515Z,24.17
2018-06-03T09:09:07.657Z,24.26
2018-06-03T09:11:35.732Z,24.30
2018-06-03T09:14:03.807Z,24.21
2018-06-03T09:16:31.883Z,24.07
2018-06-03T09:18:59.973Z,24.18
2018-06-03T09:21:28.163Z,24.10
2018-06-03T09:23:56.257Z,24.06
2018-06-03T09:26:24.319Z,24.06
2018-06-03T09:28:52.386Z,24.17
2018-06-03T09:31:20.487Z,24.17
2018-06-03T09:33:48.604Z,24.27
2018-06-03T09:36:16.631Z,24.27
2018-06-03T09:38:44.699Z,24.34
2018-06-03T09:41:12.860Z,24.41
2018-06-03T09:43:40.947Z,24.55
2018-06-03T09:46:09.003Z,24.64
2018-06-03T09:48:37.076Z,24.64
2018-06-03T09:51:05.151Z,24.70
2018-06-03T09:53:33.221Z,24.44
2018-06-03T09:56:01.313Z,24.37
2018-06-03T09:58:29.417Z,24.54
2018-06-03T10:00:57.500Z,24.41
2018-06-03T10:03:25.538Z,24.78
2018-06-03T10:05:53.703Z,24.72
2018-06-03T10:08:21.787Z,24.77
2018-06-03T10:10:49.858Z,24.74
2018-06-03T10:13:17.939Z,24.68
2018-06-03T10:15:45.989Z,24.94
2018-06-03T10:18:14.036Z,25.01
2018-06-03T10:20:42.140Z,25.18
2018-06-03T10:23:10.201Z,25.22
2018-06-03T10:25:38.267Z,25.18
2018-06-03T10:28:06.308Z,25.34
2018-06-03T10:30:34.440Z,25.41
2018-06-03T10:33:02.500Z,25.45
2018-06-03T10:35:30.575Z,25.39
2018-06-03T10:37:58.643Z,25.40
2018-06-03T10:40:26.725Z,25.55
2018-06-03T10:42:54.820Z,25.69
2018-06-03T10:45:22.903Z,25.56
2018-06-03T10:47:50.974Z,25.53
2018-06-03T10:50:19.032Z,25.58
2018-06-03T10:52:47.152Z,25.90
2018-06-03T10:55:15.254Z,25.90
2018-06-03T10:57:43.307Z,25.92
2018-06-03T11:00:11.366Z,25.92
2018-06-03T11:02:39.431Z,26.15
2018-06-03T11:05:07.517Z,26.29
2018-06-03T11:07:35.592Z,26.29
2018-06-03T11:10:03.963Z,26.33
2018-06-03T11:12:32.011Z,26.42
2018-06-03T11:15:00.143Z,26.11
2018-06-03T11:17:28.265Z,26.25
2018-06-03T11:19:56.336Z,26.20
2018-06-03T11:22:24.408Z,25.89
2018-06-03T11:24:52.510Z,26.06
2018-06-03T11:27:20.889Z,26.30
2018-06-03T11:29:49.136Z,26.48
2018-06-03T11:32:17.187Z,26.43
2018-06-03T11:34:45.255Z,26.53
2018-06-03T11:37:13.338Z,26.68
2018-06-03T11:39:41.412Z,26.75
2018-06-03T11:42:09.511Z,26.74
2018-06-03T11:44:37.716Z,26.57
2018-06-03T11:47:05.810Z,26.67
2018-06-03T11:49:33.890Z,26.79
2018-06-03T11:52:01.949Z,26.97
2018-06-03T11:54:30.017Z,27.00
2018-06-03T11:57:02.504Z,27.26
2018-06-03T11:59:47.407Z,27.45
2018-06-03T12:02:17.793Z,27.46
2018-06-03T12:04:45.906Z,27.66
2018-06-03T12:07:13.964Z,27.65
2018-06-03T12:09:42.119Z,27.70
2018-06-03T12:12:10.561Z,27.76
2018-06-03T12:14:38.683Z,27.82
2018-06-03T12:17:06.751Z,27.73
2018-06-03T12:19:35.005Z,27.56
2018-06-03T12:22:03.091Z,27.51
2018-06-03T12:24:31.156Z,27.50
2018-06-03T12:26:59.251Z,27.63
2018-06-03T12:29:27.320Z,27.57
2018-06-03T12:31:55.384Z,27.63
2018-06-03T12:34:23.479Z,27.68
2018-06-03T12:36:51.597Z,27.71
2018-06-03T12:39:19.761Z,27.70
2018-06-03T12:41:47.881Z,27.74
2018-06-03T12:44:15.899Z,27.76
2018-06-03T12:46:44.071Z,27.55
2018-06-03T12:49:12.128Z,27.00
2018-06-03T12:51:40.245Z,27.25
2018-06-03T12:54:08.336Z,27.27
2018-06-03T12:56:36.484Z,27.30
2018-06-03T12:59:04.563Z,27.15
2018-06-03T13:01:32.686Z,26.79
2018-06-03T13:04:00.805Z,26.90
2018-06-03T13:06:28.957Z,27.01
2018-06-03T13:08:58.024Z,27.09
2018-06-03T13:11:26.103Z,27.20
2018-06-03T13:13:54.183Z,27.21
2018-06-03T13:16:22.259Z,27.32
2018-06-03T13:18:50.330Z,27.36
2018-06-03T13:21:18.418Z,27.53
2018-06-03T13:23:46.764Z,27.62
2018-06-03T13:26:14.839Z,27.62
2018-06-03T13:28:42.956Z,27.53
2018-06-03T13:31:12.888Z,27.58
2018-06-03T13:33:41.272Z,27.80
2018-06-03T13:36:10.538Z,27.72
2018-06-03T13:38:41.036Z,27.96
2018-06-03T13:41:09.370Z,28.05
2018-06-03T13:43:38.252Z,27.94
2018-06-03T13:46:11.071Z,27.88
2018-06-03T13:48:41.677Z,27.88
2018-06-03T13:51:11.973Z,27.72
2018-06-03T13:53:42.975Z,27.77
2018-06-03T13:56:14.084Z,27.83
2018-06-03T13:58:45.798Z,27.67
2018-06-03T14:01:18.267Z,27.90
2018-06-03T14:03:47.046Z,28.10
2018-06-03T14:06:16.663Z,28.18
2018-06-03T14:08:45.478Z,28.17
2018-06-03T14:11:16.075Z,27.71
2018-06-03T14:13:45.446Z,27.76
2018-06-03T14:16:14.339Z,27.56
2018-06-03T14:18:43.008Z,27.58
2018-06-03T14:21:13.590Z,27.56
2018-06-03T14:23:43.408Z,27.65
2018-06-03T14:26:12.029Z,27.36
2018-06-03T14:28:42.037Z,27.65
2018-06-03T14:31:11.295Z,27.84
2018-06-03T14:33:41.626Z,27.90
2018-06-03T14:36:10.682Z,27.82
2018-06-03T14:38:39.973Z,27.78
2018-06-03T14:41:11.259Z,27.78
2018-06-03T14:43:40.057Z,27.88
2018-06-03T14:46:10.784Z,27.92
2018-06-03T14:48:40.111Z,27.79
2018-06-03T14:51:09.455Z,27.82
2018-06-03T14:53:37.520Z,27.83
2018-06-03T14:56:05.575Z,27.73
2018-06-03T14:58:33.592Z,27.78
2018-06-03T15:01:01.669Z,27.79
2018-06-03T15:03:29.757Z,27.94
2018-06-03T15:05:57.863Z,27.84
2018-06-03T15:08:26.065Z,27.64
2018-06-03T15:10:54.135Z,27.67
2018-06-03T15:13:22.220Z,27.79
2018-06-03T15:15:50.317Z,27.78
2018-06-03T15:18:18.388Z,27.77
2018-06-03T15:20:46.468Z,27.72
2018-06-03T15:23:15.375Z,27.67
2018-06-03T15:25:43.551Z,27.60
2018-06-03T15:28:11.653Z,27.57
2018-06-03T15:30:39.725Z,27.63
2018-06-03T15:33:07.861Z,27.64
2018-06-03T15:35:35.908Z,27.69
2018-06-03T15:38:03.976Z,27.73
2018-06-03T15:40:32.267Z,27.84
2018-06-03T15:43:00.419Z,27.78
2018-06-03T15:45:28.506Z,27.78
2018-06-03T15:47:56.615Z,27.78
2018-06-03T15:50:24.703Z,27.90
2018-06-03T15:52:52.768Z,27.86
2018-06-03T15:55:20.841Z,27.79
2018-06-03T15:57:48.912Z,27.85
2018-06-03T16:00:17.645Z,27.90
2018-06-03T16:02:45.745Z,27.90
2018-06-03T16:05:14.379Z,27.91
2018-06-03T16:07:42.452Z,27.99
2018-06-03T16:10:10.612Z,27.88
2018-06-03T16:12:38.701Z,27.78
2018-06-03T16:15:06.760Z,27.83
2018-06-03T16:17:34.872Z,27.82
2018-06-03T16:20:03.031Z,27.89
2018-06-03T16:22:31.092Z,27.84
2018-06-03T16:24:59.207Z,27.89
2018-06-03T16:27:27.301Z,28.03
2018-06-03T16:29:55.376Z,28.10
2018-06-03T16:32:23.460Z,28.20
2018-06-03T16:34:51.519Z,28.19
2018-06-03T16:37:20.215Z,28.25
2018-06-03T16:39:48.284Z,28.34
2018-06-03T16:42:16.333Z,28.36
2018-06-03T16:44:44.441Z,28.56
2018-06-03T16:47:12.531Z,28.57
2018-06-03T16:49:40.591Z,28.88
2018-06-03T16:52:08.667Z,28.86
2018-06-03T16:54:36.794Z,28.92
2018-06-03T16:57:04.914Z,29.27
2018-06-03T16:59:33.107Z,29.65
2018-06-03T17:02:01.183Z,29.88
2018-06-03T17:04:35.864Z,30.00
2018-06-03T17:07:03.961Z,30.00
2018-06-03T17:09:32.049Z,30.36
2018-06-03T17:12:00.183Z,30.86
2018-06-03T17:14:28.248Z,31.03
2018-06-03T17:16:56.370Z,30.94
2018-06-03T17:19:24.435Z,31.16
2018-06-03T17:21:52.504Z,31.12
2018-06-03T17:24:20.572Z,31.27
2018-06-03T17:26:48.678Z,31.48
2018-06-03T17:29:17.239Z,31.73
2018-06-03T17:31:45.326Z,31.88
2018-06-03T17:34:13.386Z,32.02
2018-06-03T17:36:41.431Z,31.96
2018-06-03T17:39:09.520Z,31.80
2018-06-03T17:41:37.589Z,31.68
2018-06-03T17:44:05.684Z,31.44
2018-06-03T17:46:33.754Z,31.17
2018-06-03T17:49:01.846Z,30.69
2018-06-03T17:51:29.901Z,30.30
2018-06-03T17:53:57.946Z,29.83
2018-06-03T17:56:26.011Z,29.48
2018-06-03T17:58:54.164Z,29.02
2018-06-03T18:01:22.256Z,28.74
2018-06-03T18:03:50.349Z,28.59
2018-06-03T18:06:18.400Z,28.43
2018-06-03T18:08:46.470Z,28.18
2018-06-03T18:11:14.571Z,28.17
2018-06-03T18:13:42.651Z,28.08
2018-06-03T18:16:10.719Z,27.96
2018-06-03T18:18:38.792Z,27.85
2018-06-03T18:21:06.850Z,27.60
2018-06-03T18:23:34.979Z,27.60
2018-06-03T18:26:03.070Z,27.46
2018-06-03T18:28:31.160Z,27.37
2018-06-03T18:30:59.247Z,27.28
2018-06-03T18:33:27.357Z,27.25
2018-06-03T18:35:55.467Z,27.23
2018-06-03T18:38:24.485Z,27.18
2018-06-03T18:40:52.588Z,27.07
2018-06-03T18:43:20.671Z,27.07
2018-06-03T18:45:48.832Z,26.90
2018-06-03T18:48:16.908Z,26.90
2018-06-03T18:50:45.036Z,26.86
2018-06-03T18:53:13.145Z,26.78
2018-06-03T18:55:41.202Z,26.71
2018-06-03T18:58:09.277Z,26.61
2018-06-03T19:00:37.345Z,26.43
2018-06-03T19:03:05.449Z,26.50
2018-06-03T19:05:33.568Z,26.40
2018-06-03T19:08:01.763Z,26.36
2018-06-03T19:10:30.067Z,26.29
2018-06-03T19:12:58.195Z,26.41
2018-06-03T19:15:26.289Z,26.30
2018-06-03T19:17:54.419Z,26.24
2018-06-03T19:20:22.496Z,26.13
2018-06-03T19:22:50.597Z,26.16
2018-06-03T19:25:18.692Z,26.13
2018-06-03T19:27:46.897Z,26.09
2018-06-03T19:30:14.991Z,25.86
2018-06-03T19:32:43.116Z,25.77
2018-06-03T19:35:11.165Z,25.69
2018-06-03T19:37:39.340Z,25.55
2018-06-03T19:40:07.531Z,25.45
2018-06-03T19:42:35.735Z,25.44
2018-06-03T19:45:03.803Z,25.41
2018-06-03T19:47:31.860Z,25.30
2018-06-03T19:49:59.958Z,25.23
2018-06-03T19:52:28.094Z,25.18
2018-06-03T19:54:56.220Z,25.09
2018-06-03T19:57:24.305Z,24.98
2018-06-03T19:59:53.445Z,24.91
2018-06-03T20:02:21.961Z,24.85
2018-06-03T20:04:50.700Z,24.75
2018-06-03T20:07:18.889Z,24.65
2018-06-03T20:09:47.074Z,24.54
2018-06-03T20:12:15.365Z,24.46
2018-06-03T20:14:43.634Z,24.43
2018-06-03T20:17:11.906Z,24.35
2018-06-03T20:19:40.215Z,24.34
2018-06-03T20:22:08.622Z,24.20
2018-06-03T20:24:39.109Z,24.24
2018-06-03T20:27:07.324Z,24.15
2018-06-03T20:29:35.821Z,24.02
2018-06-03T20:32:04.096Z,23.99
2018-06-03T20:34:36.013Z,23.88
2018-06-03T20:37:04.264Z,23.85
2018-06-03T20:39:32.542Z,23.74
2018-06-03T20:42:01.868Z,23.70
2018-06-03T20:44:30.153Z,23.57
2018-06-03T20:46:58.290Z,23.52
2018-06-03T20:49:28.652Z,23.40
2018-06-03T20:51:56.869Z,23.35
2018-06-03T20:54:25.053Z,23.22
2018-06-03T20:56:53.236Z,23.25
2018-06-03T20:59:21.719Z,23.23
2018-06-03T21:01:49.920Z,23.14
2018-06-03T21:04:19.790Z,23.10
2018-06-03T21:06:48.298Z,23.11
2018-06-03T21:09:17.861Z,23.12
2018-06-03T21:11:46.408Z,23.03
2018-06-03T21:14:14.580Z,23.05
2018-06-03T21:16:42.831Z,23.06
2018-06-03T21:19:11.698Z,22.94
2018-06-03T21:21:39.906Z,22.91
2018-06-03T21:24:08.157Z,22.90
2018-06-03T21:26:36.313Z,22.89
2018-06-03T21:29:04.469Z,22.84
2018-06-03T21:31:32.772Z,22.71
2018-06-03T21:34:00.935Z,22.74
2018-06-03T21:36:29.314Z,22.77
2018-06-03T21:38:57.473Z,22.79
2018-06-03T21:41:25.612Z,22.70
2018-06-03T21:43:53.841Z,22.70
2018-06-03T21:46:22.117Z,22.63
2018-06-03T21:48:50.282Z,22.62
2018-06-03T21:51:18.576Z,22.66
2018-06-03T21:53:46.786Z,22.61
2018-06-03T21:56:15.029Z,22.53
2018-06-03T21:58:43.232Z,22.51
2018-06-03T22:01:11.431Z,22.53
2018-06-03T22:03:39.985Z,22.51
2018-06-03T22:06:08.142Z,22.40
2018-06-03T22:08:36.321Z,22.37
2018-06-03T22:11:04.563Z,22.37
2018-06-03T22:13:32.727Z,22.42
2018-06-03T22:16:03.642Z,22.37
2018-06-03T22:18:31.865Z,22.33
2018-06-03T22:21:00.258Z,22.32
2018-06-03T22:23:28.593Z,22.19
2018-06-03T22:25:56.664Z,22.17
2018-06-03T22:28:24.746Z,22.21
2018-06-03T22:30:52.850Z,22.20
2018-06-03T22:33:20.936Z,22.11
2018-06-03T22:35:49.006Z,22.05
2018-06-03T22:38:17.071Z,22.03
2018-06-03T22:40:45.155Z,21.99
2018-06-03T22:43:13.198Z,21.96
2018-06-03T22:45:41.292Z,21.91
2018-06-03T22:48:09.364Z,21.87
2018-06-03T22:50:37.440Z,21.87
2018-06-03T22:53:05.547Z,21.76
2018-06-03T22:55:33.676Z,21.81
2018-06-03T22:58:01.821Z,21.73
2018-06-03T23:00:30.704Z,21.73
2018-06-03T23:03:04.066Z,21.74
2018-06-03T23:05:32.147Z,21.65
2018-06-03T23:08:00.293Z,21.64
2018-06-03T23:10:28.369Z,21.66
2018-06-03T23:12:56.477Z,21.59
2018-06-03T23:15:24.663Z,21.55
2018-06-03T23:17:52.712Z,21.58
2018-06-03T23:20:20.767Z,21.58
2018-06-03T23:22:48.852Z,21.58
2018-06-03T23:25:16.927Z,21.51
2018-06-03T23:27:45.035Z,21.47
2018-06-03T23:30:13.126Z,21.50
2018-06-03T23:32:41.206Z,21.45
2018-06-03T23:35:09.329Z,21.41
2018-06-03T23:37:37.385Z,21.36
2018-06-03T23:40:05.543Z,21.34
2018-06-03T23:42:33.656Z,21.46
2018-06-03T23:45:01.791Z,21.39
2018-06-03T23:47:29.838Z,21.41
2018-06-03T23:49:58.005Z,21.45
2018-06-03T23:52:26.152Z,21.40
2018-06-03T23:54:54.250Z,21.40
2018-06-03T23:57:22.375Z,21.31
2018-06-03T23:59:50.476Z,21.30
